sensor_id;sensor_type;location;lat;lon;timestamp;pressure;altitude;pressure_sealevel;temperature;humidity
71392;BME280;59205;50.610;12.638;2022-10-30T00:00:45;96120.09;;;15.61;63.32
71392;BME280;59205;50.610;12.638;2022-10-30T00:03:12;96133.16;;;15.52;63.59
71392;BME280;59205;50.610;12.638;2022-10-30T00:05:48;96124.88;;;15.46;63.75
71392;BME280;59205;50.610;12.638;2022-10-30T00:08:16;96128.47;;;15.38;64.22
71392;BME280;59205;50.610;12.638;2022-10-30T00:10:42;96131.44;;;15.35;64.46
71392;BME280;59205;50.610;12.638;2022-10-30T00:13:09;96125.16;;;15.14;65.46
71392;BME280;59205;50.610;12.638;2022-10-30T00:15:34;96119.59;;;15.23;64.89
71392;BME280;59205;50.610;12.638;2022-10-30T00:18:00;96118.72;;;15.51;63.34
71392;BME280;59205;50.610;12.638;2022-10-30T00:20:26;96111.28;;;15.52;63.32
71392;BME280;59205;50.610;12.638;2022-10-30T00:22:51;96112.94;;;15.64;62.66
71392;BME280;59205;50.610;12.638;2022-10-30T00:25:17;96114.09;;;16.03;60.70
71392;BME280;59205;50.610;12.638;2022-10-30T00:27:42;96115.09;;;16.25;59.68
71392;BME280;59205;50.610;12.638;2022-10-30T00:30:09;96111.53;;;16.39;59.14
71392;BME280;59205;50.610;12.638;2022-10-30T00:32:34;96113.81;;;16.46;58.65
71392;BME280;59205;50.610;12.638;2022-10-30T00:34:59;96110.75;;;16.39;58.89
71392;BME280;59205;50.610;12.638;2022-10-30T00:37:25;96108.13;;;16.50;58.27
71392;BME280;59205;50.610;12.638;2022-10-30T00:39:50;96112.97;;;16.66;57.64
71392;BME280;59205;50.610;12.638;2022-10-30T00:42:16;96115.19;;;16.62;57.92
71392;BME280;59205;50.610;12.638;2022-10-30T00:44:48;96110.91;;;16.55;58.10
71392;BME280;59205;50.610;12.638;2022-10-30T00:47:22;96108.13;;;16.50;58.33
71392;BME280;59205;50.610;12.638;2022-10-30T00:50:12;96099.13;;;16.75;57.42
71392;BME280;59205;50.610;12.638;2022-10-30T00:52:45;96106.06;;;16.70;57.31
71392;BME280;59205;50.610;12.638;2022-10-30T00:55:18;96101.06;;;16.69;57.59
71392;BME280;59205;50.610;12.638;2022-10-30T00:57:46;96087.72;;;16.82;57.04
71392;BME280;59205;50.610;12.638;2022-10-30T01:00:13;96096.03;;;16.93;57.06
71392;BME280;59205;50.610;12.638;2022-10-30T01:02:40;96093.66;;;16.80;57.16
71392;BME280;59205;50.610;12.638;2022-10-30T01:05:08;96093.28;;;16.62;58.03
71392;BME280;59205;50.610;12.638;2022-10-30T01:07:34;96092.94;;;16.49;58.54
71392;BME280;59205;50.610;12.638;2022-10-30T01:10:00;96097.53;;;16.63;58.12
71392;BME280;59205;50.610;12.638;2022-10-30T01:12:25;96098.28;;;16.63;58.07
71392;BME280;59205;50.610;12.638;2022-10-30T01:14:54;96093.06;;;16.34;59.21
71392;BME280;59205;50.610;12.638;2022-10-30T01:33:10;96079.22;;;16.43;59.25
71392;BME280;59205;50.610;12.638;2022-10-30T01:38:30;96063.25;;;16.11;60.69
71392;BME280;59205;50.610;12.638;2022-10-30T01:40:56;96058.41;;;16.00;61.00
71392;BME280;59205;50.610;12.638;2022-10-30T01:43:22;96052.72;;;16.04;60.56
71392;BME280;59205;50.610;12.638;2022-10-30T01:46:24;96058.25;;;16.09;59.96
71392;BME280;59205;50.610;12.638;2022-10-30T01:54:37;96060.97;;;16.09;59.62
71392;BME280;59205;50.610;12.638;2022-10-30T01:57:40;96059.06;;;15.90;60.59
71392;BME280;59205;50.610;12.638;2022-10-30T02:00:13;96063.66;;;16.04;59.61
71392;BME280;59205;50.610;12.638;2022-10-30T02:02:40;96069.28;;;16.20;58.90
71392;BME280;59205;50.610;12.638;2022-10-30T02:05:08;96061.75;;;17.08;55.05
71392;BME280;59205;50.610;12.638;2022-10-30T02:07:35;96057.09;;;16.78;56.29
71392;BME280;59205;50.610;12.638;2022-10-30T02:10:00;96052.91;;;16.88;55.70
71392;BME280;59205;50.610;12.638;2022-10-30T02:12:26;96060.72;;;17.06;54.94
71392;BME280;59205;50.610;12.638;2022-10-30T02:14:56;96058.50;;;17.10;54.66
71392;BME280;59205;50.610;12.638;2022-10-30T02:17:21;96061.50;;;17.12;54.62
71392;BME280;59205;50.610;12.638;2022-10-30T02:19:47;96070.00;;;17.14;54.17
71392;BME280;59205;50.610;12.638;2022-10-30T02:22:13;96069.53;;;17.20;54.04
71392;BME280;59205;50.610;12.638;2022-10-30T02:24:38;96067.28;;;17.14;54.31
71392;BME280;59205;50.610;12.638;2022-10-30T02:27:04;96068.28;;;17.21;54.32
71392;BME280;59205;50.610;12.638;2022-10-30T02:29:29;96050.84;;;17.14;54.10
71392;BME280;59205;50.610;12.638;2022-10-30T02:31:54;96050.56;;;17.12;54.52
71392;BME280;59205;50.610;12.638;2022-10-30T02:34:20;96047.13;;;16.80;55.51
71392;BME280;59205;50.610;12.638;2022-10-30T02:36:46;96045.19;;;16.86;55.69
71392;BME280;59205;50.610;12.638;2022-10-30T02:39:11;96047.78;;;16.64;55.97
71392;BME280;59205;50.610;12.638;2022-10-30T02:41:37;96036.63;;;16.73;55.77
71392;BME280;59205;50.610;12.638;2022-10-30T02:44:03;96040.91;;;16.80;55.42
71392;BME280;59205;50.610;12.638;2022-10-30T02:46:29;96036.56;;;16.99;55.02
71392;BME280;59205;50.610;12.638;2022-10-30T02:48:54;96027.56;;;16.98;55.02
71392;BME280;59205;50.610;12.638;2022-10-30T02:51:20;96033.53;;;16.91;54.73
71392;BME280;59205;50.610;12.638;2022-10-30T02:53:45;96034.09;;;16.64;55.70
71392;BME280;59205;50.610;12.638;2022-10-30T02:56:13;96040.41;;;16.76;55.12
71392;BME280;59205;50.610;12.638;2022-10-30T02:58:39;96032.66;;;16.74;54.92
71392;BME280;59205;50.610;12.638;2022-10-30T03:01:16;96037.91;;;16.78;55.07
71392;BME280;59205;50.610;12.638;2022-10-30T03:03:42;96041.59;;;16.69;55.48
71392;BME280;59205;50.610;12.638;2022-10-30T03:06:13;96039.16;;;16.77;55.09
71392;BME280;59205;50.610;12.638;2022-10-30T03:08:40;96035.91;;;16.73;55.23
71392;BME280;59205;50.610;12.638;2022-10-30T03:11:11;96031.75;;;16.88;54.82
71392;BME280;59205;50.610;12.638;2022-10-30T03:13:37;96029.88;;;16.69;55.56
71392;BME280;59205;50.610;12.638;2022-10-30T03:16:09;96015.78;;;16.45;56.53
71392;BME280;59205;50.610;12.638;2022-10-30T03:18:36;96016.78;;;16.42;56.67
71392;BME280;59205;50.610;12.638;2022-10-30T03:21:03;96020.00;;;16.15;57.62
71392;BME280;59205;50.610;12.638;2022-10-30T03:23:29;96017.72;;;16.08;57.88
71392;BME280;59205;50.610;12.638;2022-10-30T03:25:56;96019.81;;;15.93;58.57
71392;BME280;59205;50.610;12.638;2022-10-30T03:28:24;96018.16;;;16.32;57.59
71392;BME280;59205;50.610;12.638;2022-10-30T03:30:50;96009.22;;;16.00;58.62
71392;BME280;59205;50.610;12.638;2022-10-30T03:33:16;96004.47;;;16.01;58.39
71392;BME280;59205;50.610;12.638;2022-10-30T03:35:43;96008.75;;;16.07;57.78
71392;BME280;59205;50.610;12.638;2022-10-30T03:38:10;96002.44;;;15.96;58.21
71392;BME280;59205;50.610;12.638;2022-10-30T03:40:36;96012.53;;;16.10;58.04
71392;BME280;59205;50.610;12.638;2022-10-30T03:43:01;96022.44;;;15.82;59.13
71392;BME280;59205;50.610;12.638;2022-10-30T03:45:26;96016.88;;;15.71;59.67
71392;BME280;59205;50.610;12.638;2022-10-30T03:47:52;96007.22;;;15.50;60.34
71392;BME280;59205;50.610;12.638;2022-10-30T03:50:17;96013.69;;;15.52;60.83
71392;BME280;59205;50.610;12.638;2022-10-30T03:52:42;96013.78;;;15.38;61.59
71392;BME280;59205;50.610;12.638;2022-10-30T03:55:08;96017.88;;;15.48;62.00
71392;BME280;59205;50.610;12.638;2022-10-30T03:57:37;96007.75;;;15.54;61.93
71392;BME280;59205;50.610;12.638;2022-10-30T04:00:03;95999.34;;;15.57;62.17
71392;BME280;59205;50.610;12.638;2022-10-30T04:02:29;96014.78;;;15.60;62.16
71392;BME280;59205;50.610;12.638;2022-10-30T04:04:54;96008.84;;;15.42;62.88
71392;BME280;59205;50.610;12.638;2022-10-30T04:07:20;96015.53;;;15.41;62.89
71392;BME280;59205;50.610;12.638;2022-10-30T04:09:45;96017.41;;;15.75;61.21
71392;BME280;59205;50.610;12.638;2022-10-30T04:12:10;96021.53;;;15.65;61.44
71392;BME280;59205;50.610;12.638;2022-10-30T04:14:36;96014.53;;;15.39;62.36
71392;BME280;59205;50.610;12.638;2022-10-30T04:17:01;96014.88;;;15.46;62.19
71392;BME280;59205;50.610;12.638;2022-10-30T04:19:27;96014.50;;;15.58;61.49
71392;BME280;59205;50.610;12.638;2022-10-30T04:21:52;96010.44;;;15.74;60.71
71392;BME280;59205;50.610;12.638;2022-10-30T04:24:17;96013.00;;;15.83;60.34
71392;BME280;59205;50.610;12.638;2022-10-30T04:26:43;96009.41;;;15.71;60.70
71392;BME280;59205;50.610;12.638;2022-10-30T04:29:09;96014.47;;;15.78;60.46
71392;BME280;59205;50.610;12.638;2022-10-30T04:31:34;96007.53;;;15.83;60.01
71392;BME280;59205;50.610;12.638;2022-10-30T04:34:00;96012.47;;;15.79;60.22
71392;BME280;59205;50.610;12.638;2022-10-30T04:36:25;96002.88;;;15.89;59.71
71392;BME280;59205;50.610;12.638;2022-10-30T04:38:57;95994.09;;;16.36;57.97
71392;BME280;59205;50.610;12.638;2022-10-30T04:41:22;95997.03;;;16.32;57.87
71392;BME280;59205;50.610;12.638;2022-10-30T04:43:48;95993.72;;;16.54;57.05
71392;BME280;59205;50.610;12.638;2022-10-30T04:46:14;95988.31;;;16.65;56.53
71392;BME280;59205;50.610;12.638;2022-10-30T04:48:41;95995.03;;;16.64;56.64
71392;BME280;59205;50.610;12.638;2022-10-30T04:51:07;95997.00;;;16.58;56.77
71392;BME280;59205;50.610;12.638;2022-10-30T04:53:33;95984.59;;;16.68;56.32
71392;BME280;59205;50.610;12.638;2022-10-30T04:55:58;95988.06;;;16.63;56.29
71392;BME280;59205;50.610;12.638;2022-10-30T04:58:23;95984.72;;;16.48;56.84
71392;BME280;59205;50.610;12.638;2022-10-30T05:00:49;95992.94;;;16.48;56.96
71392;BME280;59205;50.610;12.638;2022-10-30T05:03:20;95987.81;;;16.30;57.41
71392;BME280;59205;50.610;12.638;2022-10-30T05:05:47;95985.34;;;16.32;57.37
71392;BME280;59205;50.610;12.638;2022-10-30T05:08:13;95988.25;;;16.23;57.98
71392;BME280;59205;50.610;12.638;2022-10-30T05:10:39;95981.72;;;16.40;57.52
71392;BME280;59205;50.610;12.638;2022-10-30T05:13:04;95991.66;;;16.80;55.95
71392;BME280;59205;50.610;12.638;2022-10-30T05:15:30;95981.56;;;17.08;54.80
71392;BME280;59205;50.610;12.638;2022-10-30T05:17:55;95975.56;;;16.51;56.91
71392;BME280;59205;50.610;12.638;2022-10-30T05:20:21;95980.22;;;16.39;57.18
71392;BME280;59205;50.610;12.638;2022-10-30T05:22:56;95978.16;;;16.34;57.23
71392;BME280;59205;50.610;12.638;2022-10-30T05:25:23;95989.88;;;16.35;56.77
71392;BME280;59205;50.610;12.638;2022-10-30T05:27:48;95990.19;;;16.48;56.37
71392;BME280;59205;50.610;12.638;2022-10-30T05:30:13;95986.94;;;16.44;56.40
71392;BME280;59205;50.610;12.638;2022-10-30T05:32:39;95988.31;;;16.65;56.22
71392;BME280;59205;50.610;12.638;2022-10-30T05:35:04;95995.72;;;16.53;56.92
71392;BME280;59205;50.610;12.638;2022-10-30T05:37:30;95991.66;;;16.43;56.80
71392;BME280;59205;50.610;12.638;2022-10-30T05:39:55;95982.03;;;16.53;56.29
71392;BME280;59205;50.610;12.638;2022-10-30T05:42:21;95976.38;;;16.31;57.07
71392;BME280;59205;50.610;12.638;2022-10-30T05:44:46;95985.69;;;16.45;56.97
71392;BME280;59205;50.610;12.638;2022-10-30T05:47:12;95986.41;;;16.40;56.87
71392;BME280;59205;50.610;12.638;2022-10-30T05:49:37;95983.91;;;16.36;56.91
71392;BME280;59205;50.610;12.638;2022-10-30T05:52:03;95979.75;;;16.46;56.74
71392;BME280;59205;50.610;12.638;2022-10-30T05:54:28;95988.63;;;16.36;57.12
71392;BME280;59205;50.610;12.638;2022-10-30T05:56:55;95995.59;;;16.37;56.90
71392;BME280;59205;50.610;12.638;2022-10-30T05:59:21;95984.09;;;16.33;56.98
71392;BME280;59205;50.610;12.638;2022-10-30T06:01:46;95990.44;;;16.44;56.61
71392;BME280;59205;50.610;12.638;2022-10-30T06:04:13;95996.09;;;16.72;55.82
71392;BME280;59205;50.610;12.638;2022-10-30T06:06:38;95995.59;;;16.37;57.09
71392;BME280;59205;50.610;12.638;2022-10-30T06:09:04;95994.41;;;16.43;56.80
71392;BME280;59205;50.610;12.638;2022-10-30T06:11:29;95993.78;;;16.65;57.05
71392;BME280;59205;50.610;12.638;2022-10-30T06:13:54;96001.00;;;16.68;56.48
71392;BME280;59205;50.610;12.638;2022-10-30T06:16:20;95996.53;;;16.65;56.52
71392;BME280;59205;50.610;12.638;2022-10-30T06:18:45;96003.75;;;16.68;56.44
71392;BME280;59205;50.610;12.638;2022-10-30T06:21:11;96000.31;;;16.73;56.34
71392;BME280;59205;50.610;12.638;2022-10-30T06:23:36;95995.97;;;16.55;57.50
71392;BME280;59205;50.610;12.638;2022-10-30T06:26:02;96004.22;;;16.61;57.25
71392;BME280;59205;50.610;12.638;2022-10-30T06:28:27;96003.38;;;16.86;56.54
71392;BME280;59205;50.610;12.638;2022-10-30T06:30:53;95999.16;;;16.90;56.67
71392;BME280;59205;50.610;12.638;2022-10-30T06:33:19;96004.78;;;17.17;55.71
71392;BME280;59205;50.610;12.638;2022-10-30T06:35:47;96004.72;;;17.07;55.97
71392;BME280;59205;50.610;12.638;2022-10-30T06:38:13;96009.50;;;17.17;55.73
71392;BME280;59205;50.610;12.638;2022-10-30T06:40:40;96009.28;;;17.20;55.41
71392;BME280;59205;50.610;12.638;2022-10-30T06:43:05;96017.97;;;17.19;55.74
71392;BME280;59205;50.610;12.638;2022-10-30T06:45:31;96017.75;;;17.22;56.10
71392;BME280;59205;50.610;12.638;2022-10-30T06:47:56;96019.75;;;17.27;56.08
71392;BME280;59205;50.610;12.638;2022-10-30T06:50:22;96025.44;;;17.18;56.46
71392;BME280;59205;50.610;12.638;2022-10-30T06:52:48;96021.47;;;17.19;56.60
71392;BME280;59205;50.610;12.638;2022-10-30T06:55:14;96023.47;;;17.24;56.36
71392;BME280;59205;50.610;12.638;2022-10-30T06:57:39;96023.72;;;17.26;56.56
71392;BME280;59205;50.610;12.638;2022-10-30T07:00:06;96021.00;;;17.26;56.33
71392;BME280;59205;50.610;12.638;2022-10-30T07:02:31;96029.06;;;17.35;55.95
71392;BME280;59205;50.610;12.638;2022-10-30T07:04:57;96029.59;;;17.50;55.26
71392;BME280;59205;50.610;12.638;2022-10-30T07:07:22;96028.09;;;17.49;55.24
71392;BME280;59205;50.610;12.638;2022-10-30T07:09:48;96026.84;;;17.50;55.27
71392;BME280;59205;50.610;12.638;2022-10-30T07:12:13;96030.59;;;17.53;55.18
71392;BME280;59205;50.610;12.638;2022-10-30T07:14:38;96023.63;;;17.63;54.84
71392;BME280;59205;50.610;12.638;2022-10-30T07:17:04;96028.69;;;17.81;54.00
71392;BME280;59205;50.610;12.638;2022-10-30T07:19:29;96031.69;;;17.77;54.47
71392;BME280;59205;50.610;12.638;2022-10-30T07:21:55;96032.16;;;17.76;54.76
71392;BME280;59205;50.610;12.638;2022-10-30T07:24:20;96027.19;;;17.85;54.57
71392;BME280;59205;50.610;12.638;2022-10-30T07:26:46;96030.94;;;17.82;54.82
71392;BME280;59205;50.610;12.638;2022-10-30T07:29:11;96031.94;;;17.79;55.25
71392;BME280;59205;50.610;12.638;2022-10-30T07:31:36;96043.88;;;17.76;55.62
71392;BME280;59205;50.610;12.638;2022-10-30T07:34:02;96043.16;;;17.81;55.61
71392;BME280;59205;50.610;12.638;2022-10-30T07:36:27;96039.44;;;17.90;55.05
71392;BME280;59205;50.610;12.638;2022-10-30T07:38:53;96043.91;;;17.87;55.35
71392;BME280;59205;50.610;12.638;2022-10-30T07:41:19;96049.16;;;17.96;54.81
71392;BME280;59205;50.610;12.638;2022-10-30T07:43:45;96052.16;;;17.98;54.89
71392;BME280;59205;50.610;12.638;2022-10-30T07:46:12;96051.41;;;18.03;54.47
71392;BME280;59205;50.610;12.638;2022-10-30T07:48:37;96053.16;;;18.01;54.73
71392;BME280;59205;50.610;12.638;2022-10-30T07:51:03;96050.69;;;18.19;54.00
71392;BME280;59205;50.610;12.638;2022-10-30T07:53:28;96051.22;;;18.29;53.70
71392;BME280;59205;50.610;12.638;2022-10-30T07:55:54;96047.72;;;18.45;53.31
71392;BME280;59205;50.610;12.638;2022-10-30T07:58:20;96048.22;;;18.49;52.93
71392;BME280;59205;50.610;12.638;2022-10-30T08:00:45;96053.72;;;18.49;53.42
71392;BME280;59205;50.610;12.638;2022-10-30T08:03:11;96060.72;;;18.55;53.13
71392;BME280;59205;50.610;12.638;2022-10-30T08:05:37;96057.47;;;18.51;53.82
71392;BME280;59205;50.610;12.638;2022-10-30T08:08:03;96057.22;;;18.77;53.39
71392;BME280;59205;50.610;12.638;2022-10-30T08:10:28;96053.72;;;18.65;53.77
71392;BME280;59205;50.610;12.638;2022-10-30T08:12:54;96057.47;;;18.79;53.54
71392;BME280;59205;50.610;12.638;2022-10-30T08:15:19;96055.19;;;18.94;53.05
71392;BME280;59205;50.610;12.638;2022-10-30T08:17:47;96048.94;;;19.04;52.94
71392;BME280;59205;50.610;12.638;2022-10-30T08:20:15;96050.91;;;18.98;53.60
71392;BME280;59205;50.610;12.638;2022-10-30T08:22:47;96062.66;;;19.20;52.96
71392;BME280;59205;50.610;12.638;2022-10-30T08:25:13;96055.56;;;19.47;52.25
71392;BME280;59205;50.610;12.638;2022-10-30T08:27:49;96057.09;;;19.94;51.25
71392;BME280;59205;50.610;12.638;2022-10-30T08:30:15;96060.53;;;20.11;50.43
71392;BME280;59205;50.610;12.638;2022-10-30T08:32:40;96054.31;;;20.40;50.07
71392;BME280;59205;50.610;12.638;2022-10-30T08:35:06;96045.84;;;20.32;50.50
71392;BME280;59205;50.610;12.638;2022-10-30T08:37:31;96052.22;;;20.16;50.60
71392;BME280;59205;50.610;12.638;2022-10-30T08:39:57;96053.47;;;20.50;49.56
71392;BME280;59205;50.610;12.638;2022-10-30T08:42:22;96057.03;;;21.04;48.56
71392;BME280;59205;50.610;12.638;2022-10-30T08:44:47;96060.13;;;21.85;47.32
71392;BME280;59205;50.610;12.638;2022-10-30T08:47:13;96054.75;;;22.92;45.30
71392;BME280;59205;50.610;12.638;2022-10-30T08:49:38;96053.81;;;22.90;45.45
71392;BME280;59205;50.610;12.638;2022-10-30T08:52:07;96053.09;;;23.93;42.39
71392;BME280;59205;50.610;12.638;2022-10-30T08:54:33;96054.13;;;24.70;40.97
71392;BME280;59205;50.610;12.638;2022-10-30T08:56:58;96061.66;;;24.49;41.41
71392;BME280;59205;50.610;12.638;2022-10-30T08:59:23;96057.50;;;25.45;39.31
71392;BME280;59205;50.610;12.638;2022-10-30T09:01:49;96053.38;;;25.38;38.50
71392;BME280;59205;50.610;12.638;2022-10-30T09:04:15;96053.78;;;24.73;40.10
71392;BME280;59205;50.610;12.638;2022-10-30T09:06:40;96055.09;;;24.06;40.57
71392;BME280;59205;50.610;12.638;2022-10-30T09:09:06;96053.00;;;23.86;40.61
71392;BME280;59205;50.610;12.638;2022-10-30T09:11:31;96056.41;;;23.40;41.46
71392;BME280;59205;50.610;12.638;2022-10-30T09:13:57;96044.19;;;22.78;43.09
71392;BME280;59205;50.610;12.638;2022-10-30T09:16:22;96053.66;;;22.82;43.51
71392;BME280;59205;50.610;12.638;2022-10-30T09:18:47;96049.25;;;22.61;43.75
71392;BME280;59205;50.610;12.638;2022-10-30T09:21:13;96050.34;;;22.21;45.09
71392;BME280;59205;50.610;12.638;2022-10-30T09:23:38;96050.50;;;22.10;45.23
71392;BME280;59205;50.610;12.638;2022-10-30T09:26:04;96058.44;;;21.82;45.65
71392;BME280;59205;50.610;12.638;2022-10-30T09:28:29;96060.88;;;21.67;45.77
71392;BME280;59205;50.610;12.638;2022-10-30T09:30:54;96056.72;;;21.55;46.25
71392;BME280;59205;50.610;12.638;2022-10-30T09:33:21;96062.44;;;21.39;46.64
71392;BME280;59205;50.610;12.638;2022-10-30T09:35:47;96070.72;;;21.57;46.80
71392;BME280;59205;50.610;12.638;2022-10-30T09:38:12;96069.47;;;22.38;45.07
71392;BME280;59205;50.610;12.638;2022-10-30T09:40:58;96062.00;;;22.64;44.68
71392;BME280;59205;50.610;12.638;2022-10-30T09:52:06;96065.13;;;23.70;42.51
71392;BME280;59205;50.610;12.638;2022-10-30T09:57:24;96064.38;;;24.62;41.39
71392;BME280;59205;50.610;12.638;2022-10-30T10:00:10;96059.94;;;24.79;40.96
71392;BME280;59205;50.610;12.638;2022-10-30T10:05:20;96058.75;;;23.75;43.67
71392;BME280;59205;50.610;12.638;2022-10-30T10:07:48;96058.94;;;23.90;44.15
71392;BME280;59205;50.610;12.638;2022-10-30T10:12:58;96066.00;;;26.10;38.82
71392;BME280;59205;50.610;12.638;2022-10-30T10:17:49;96073.97;;;26.64;37.21
71392;BME280;59205;50.610;12.638;2022-10-30T10:20:41;96061.03;;;27.19;37.34
71392;BME280;59205;50.610;12.638;2022-10-30T10:23:25;96072.84;;;26.67;36.39
71392;BME280;59205;50.610;12.638;2022-10-30T10:25:52;96065.84;;;26.88;36.75
71392;BME280;59205;50.610;12.638;2022-10-30T10:28:54;96064.75;;;27.14;36.49
71392;BME280;59205;50.610;12.638;2022-10-30T10:31:46;96053.78;;;27.31;35.71
71392;BME280;59205;50.610;12.638;2022-10-30T10:45:04;96049.72;;;28.01;34.55
71392;BME280;59205;50.610;12.638;2022-10-30T10:47:45;96048.34;;;27.70;35.71
71392;BME280;59205;50.610;12.638;2022-10-30T10:52:51;96053.38;;;28.82;34.88
71392;BME280;59205;50.610;12.638;2022-10-30T10:55:26;96052.78;;;28.59;34.08
71392;BME280;59205;50.610;12.638;2022-10-30T10:57:57;96051.25;;;28.98;31.48
71392;BME280;59205;50.610;12.638;2022-10-30T11:00:25;96046.28;;;28.64;32.10
71392;BME280;59205;50.610;12.638;2022-10-30T11:08:00;96054.25;;;28.28;31.20
71392;BME280;59205;50.610;12.638;2022-10-30T11:10:28;96044.75;;;28.39;31.75
71392;BME280;59205;50.610;12.638;2022-10-30T11:12:53;96047.03;;;28.33;31.49
71392;BME280;59205;50.610;12.638;2022-10-30T11:17:54;96045.03;;;29.07;29.73
71392;BME280;59205;50.610;12.638;2022-10-30T11:20:29;96039.88;;;28.71;31.03
71392;BME280;59205;50.610;12.638;2022-10-30T11:22:57;96045.47;;;28.39;31.66
71392;BME280;59205;50.610;12.638;2022-10-30T11:25:24;96048.16;;;28.22;30.81
71392;BME280;59205;50.610;12.638;2022-10-30T11:27:55;96037.38;;;27.80;31.46
71392;BME280;59205;50.610;12.638;2022-10-30T11:30:23;96033.81;;;28.26;30.56
71392;BME280;59205;50.610;12.638;2022-10-30T11:32:49;96041.56;;;27.96;30.83
71392;BME280;59205;50.610;12.638;2022-10-30T11:35:17;96045.31;;;27.91;30.00
71392;BME280;59205;50.610;12.638;2022-10-30T11:37:45;96031.47;;;28.15;30.91
71392;BME280;59205;50.610;12.638;2022-10-30T11:42:42;96027.13;;;28.61;29.41
71392;BME280;59205;50.610;12.638;2022-10-30T11:45:31;96033.75;;;28.02;30.95
71392;BME280;59205;50.610;12.638;2022-10-30T11:47:59;96029.94;;;27.75;30.39
71392;BME280;59205;50.610;12.638;2022-10-30T11:50:27;96039.63;;;28.20;29.38
71392;BME280;59205;50.610;12.638;2022-10-30T11:56:17;96032.25;;;28.08;28.82
71392;BME280;59205;50.610;12.638;2022-10-30T11:58:47;96031.50;;;28.08;29.30
71392;BME280;59205;50.610;12.638;2022-10-30T12:03:43;96031.25;;;27.74;29.72
71392;BME280;59205;50.610;12.638;2022-10-30T12:06:29;96032.31;;;28.25;29.23
71392;BME280;59205;50.610;12.638;2022-10-30T12:11:37;96026.47;;;28.06;28.72
71392;BME280;59205;50.610;12.638;2022-10-30T12:14:04;96014.78;;;28.39;27.94
71392;BME280;59205;50.610;12.638;2022-10-30T12:16:31;96023.22;;;28.88;29.62
71392;BME280;59205;50.610;12.638;2022-10-30T12:21:23;96014.19;;;28.48;27.16
71392;BME280;59205;50.610;12.638;2022-10-30T12:24:00;96019.84;;;28.33;29.08
71392;BME280;59205;50.610;12.638;2022-10-30T12:26:32;96011.53;;;28.58;28.27
71392;BME280;59205;50.610;12.638;2022-10-30T12:29:01;96013.91;;;28.86;28.47
71392;BME280;59205;50.610;12.638;2022-10-30T12:31:34;96010.63;;;28.16;29.15
71392;BME280;59205;50.610;12.638;2022-10-30T12:36:48;96014.66;;;27.91;27.62
71392;BME280;59205;50.610;12.638;2022-10-30T12:39:43;96011.16;;;28.22;27.53
71392;BME280;59205;50.610;12.638;2022-10-30T12:42:16;96006.41;;;27.53;28.38
71392;BME280;59205;50.610;12.638;2022-10-30T12:47:26;96009.84;;;27.91;28.14
71392;BME280;59205;50.610;12.638;2022-10-30T12:50:00;96002.59;;;27.88;28.03
71392;BME280;59205;50.610;12.638;2022-10-30T12:52:35;95999.91;;;28.69;26.22
71392;BME280;59205;50.610;12.638;2022-10-30T12:57:35;95998.03;;;28.08;27.69
71392;BME280;59205;50.610;12.638;2022-10-30T13:00:12;95993.31;;;27.86;27.18
71392;BME280;59205;50.610;12.638;2022-10-30T13:02:47;95995.78;;;27.74;28.33
71392;BME280;59205;50.610;12.638;2022-10-30T13:05:22;95995.78;;;27.59;29.15
71392;BME280;59205;50.610;12.638;2022-10-30T13:08:35;95994.22;;;27.26;29.35
71392;BME280;59205;50.610;12.638;2022-10-30T13:13:40;95995.53;;;26.88;28.22
71392;BME280;59205;50.610;12.638;2022-10-30T13:16:09;95996.84;;;27.17;28.17
71392;BME280;59205;50.610;12.638;2022-10-30T13:18:37;95986.81;;;26.99;28.41
71392;BME280;59205;50.610;12.638;2022-10-30T13:21:58;95992.72;;;26.95;28.55
71392;BME280;59205;50.610;12.638;2022-10-30T13:30:18;95994.78;;;27.10;28.85
71392;BME280;59205;50.610;12.638;2022-10-30T13:33:04;95995.34;;;26.86;28.84
71392;BME280;59205;50.610;12.638;2022-10-30T13:35:55;95997.94;;;27.06;28.79
71392;BME280;59205;50.610;12.638;2022-10-30T13:43:48;95992.06;;;25.57;33.75
71392;BME280;59205;50.610;12.638;2022-10-30T13:52:04;95996.97;;;25.43;32.84
71392;BME280;59205;50.610;12.638;2022-10-30T13:54:37;95989.00;;;24.63;34.91
71392;BME280;59205;50.610;12.638;2022-10-30T13:57:28;95990.81;;;24.41;36.36
71392;BME280;59205;50.610;12.638;2022-10-30T14:05:29;95989.56;;;24.29;35.36
71392;BME280;59205;50.610;12.638;2022-10-30T14:13:19;95993.44;;;23.79;34.75
71392;BME280;59205;50.610;12.638;2022-10-30T14:15:45;95995.50;;;23.66;35.26
71392;BME280;59205;50.610;12.638;2022-10-30T14:20:41;95986.06;;;23.48;35.39
71392;BME280;59205;50.610;12.638;2022-10-30T14:23:12;95994.47;;;23.43;35.35
71392;BME280;59205;50.610;12.638;2022-10-30T14:25:38;95990.66;;;23.33;35.36
71392;BME280;59205;50.610;12.638;2022-10-30T14:28:04;95988.31;;;23.24;35.70
71392;BME280;59205;50.610;12.638;2022-10-30T14:30:32;95992.47;;;23.17;35.51
71392;BME280;59205;50.610;12.638;2022-10-30T14:32:58;95996.06;;;22.99;36.46
71392;BME280;59205;50.610;12.638;2022-10-30T14:35:38;95994.34;;;22.96;36.62
71392;BME280;59205;50.610;12.638;2022-10-30T14:40:44;95984.97;;;22.73;35.77
71392;BME280;59205;50.610;12.638;2022-10-30T14:43:34;95985.16;;;22.63;36.12
71392;BME280;59205;50.610;12.638;2022-10-30T14:46:31;95990.44;;;22.48;36.82
71392;BME280;59205;50.610;12.638;2022-10-30T14:49:08;95984.94;;;22.29;37.40
71392;BME280;59205;50.610;12.638;2022-10-30T14:51:50;95987.47;;;21.96;38.77
71392;BME280;59205;50.610;12.638;2022-10-30T14:56:50;95985.75;;;21.93;39.15
71392;BME280;59205;50.610;12.638;2022-10-30T15:02:09;95983.00;;;21.74;40.10
71392;BME280;59205;50.610;12.638;2022-10-30T15:13:51;95993.47;;;21.57;40.31